Time;durP1;ratioP1;P1;durP2;ratioP2;P2;SDS_P1;SDS_P2;PMS_P1;PMS_P2;Temp;Humidity;BMP_temperature;BMP_pressure;BME280_temperature;BME280_humidity;BME280_pressure;Samples;Min_cycle;Max_cycle;Signal;HPM_P1;HPM_P2
2022/04/14 00:00:29;;;;;;;8.48;4.05;;;;;;;10.48;100.00;101896.66;5024187;28;20034;-73
2022/04/14 00:02:55;;;;;;;11.13;5.72;;;;;;;10.50;100.00;101892.09;5022830;28;20486;-74
2022/04/14 00:05:21;;;;;;;8.10;5.65;;;;;;;10.50;99.34;101898.19;5027248;28;20087;-74
2022/04/14 00:07:47;;;;;;;7.68;4.75;;;;;;;10.54;99.11;101898.81;5028416;28;20021;-74
2022/04/14 00:10:14;;;;;;;8.15;5.05;;;;;;;10.55;98.95;101895.19;5019471;28;20076;-74
2022/04/14 00:12:40;;;;;;;9.60;5.25;;;;;;;10.54;98.80;101896.16;5019135;28;20037;-74
2022/04/14 00:15:07;;;;;;;9.95;5.22;;;;;;;10.53;98.64;101901.56;5024467;28;20033;-73
2022/04/14 00:17:33;;;;;;;7.72;4.68;;;;;;;10.53;98.57;101891.84;5021393;28;20116;-73
2022/04/14 00:19:59;;;;;;;8.93;5.10;;;;;;;10.55;98.82;101894.34;5018787;28;20533;-73
2022/04/14 00:22:25;;;;;;;8.52;5.65;;;;;;;10.53;98.97;101891.84;5022671;28;20030;-73
2022/04/14 00:24:50;;;;;;;8.45;4.38;;;;;;;10.53;98.94;101886.56;5018569;28;20041;-73
2022/04/14 00:27:20;;;;;;;9.70;5.53;;;;;;;10.46;97.90;101877.47;5020953;28;20033;-73
2022/04/14 00:29:46;;;;;;;9.07;5.55;;;;;;;10.52;98.25;101892.81;5027482;28;20025;-73
2022/04/14 00:32:12;;;;;;;7.05;5.50;;;;;;;10.48;97.63;101875.53;5013805;28;20018;-73
2022/04/14 00:34:37;;;;;;;13.25;6.60;;;;;;;10.48;98.31;101886.09;5018139;28;20041;-73
2022/04/14 00:37:03;;;;;;;11.57;6.85;;;;;;;10.42;98.54;101878.66;5012588;28;20569;-73
2022/04/14 00:39:28;;;;;;;12.82;5.97;;;;;;;10.41;98.38;101882.25;5024801;28;20113;-74
2022/04/14 00:41:53;;;;;;;11.68;6.65;;;;;;;10.37;99.13;101879.03;5018599;28;20030;-74
2022/04/14 00:44:19;;;;;;;10.27;6.07;;;;;;;10.43;98.91;101894.38;5024438;28;20068;-74
2022/04/14 00:46:44;;;;;;;10.60;6.22;;;;;;;10.32;98.75;101873.28;5005593;28;20037;-74
2022/04/14 00:49:10;;;;;;;10.15;6.50;;;;;;;10.41;99.20;101887.53;5017944;28;20025;-74
2022/04/14 00:51:35;;;;;;;11.88;6.80;;;;;;;10.42;98.45;101890.06;5023148;28;20024;-74
2022/04/14 00:54:00;;;;;;;11.10;5.47;;;;;;;10.38;97.54;101888.63;5024458;28;20025;-73
2022/04/14 00:56:26;;;;;;;10.55;6.05;;;;;;;10.40;97.12;101888.50;5024196;28;20029;-73
2022/04/14 00:58:51;;;;;;;10.82;6.22;;;;;;;10.37;96.17;101900.16;5019094;28;20482;-74
2022/04/14 01:01:17;;;;;;;10.20;6.97;;;;;;;10.35;97.08;101901.25;5013676;28;20045;-74
2022/04/14 01:03:45;;;;;;;9.50;6.00;;;;;;;10.29;97.60;101894.63;5019735;28;20028;-74
2022/04/14 01:06:14;;;;;;;12.15;7.00;;;;;;;10.26;98.20;101886.94;4996891;28;20027;-74
2022/04/14 01:08:40;;;;;;;11.32;7.38;;;;;;;10.26;97.78;101908.88;5019609;28;20038;-74
2022/04/14 01:11:06;;;;;;;11.75;6.90;;;;;;;10.24;98.74;101900.25;5021914;28;20032;-73
2022/04/14 01:13:32;;;;;;;12.00;7.18;;;;;;;10.18;99.53;101892.81;5018346;28;20029;-74
2022/04/14 01:15:59;;;;;;;14.80;7.38;;;;;;;10.17;99.58;101901.72;5022189;28;20072;-74
2022/04/14 01:18:26;;;;;;;11.45;7.07;;;;;;;10.18;98.32;101908.66;5020858;28;20496;-74
2022/04/14 01:20:52;;;;;;;9.00;6.28;;;;;;;10.14;98.82;101912.50;5017825;28;20087;-74
2022/04/14 01:23:24;;;;;;;10.23;6.88;;;;;;;10.13;98.30;101913.47;5019941;28;20029;-74
2022/04/14 01:25:50;;;;;;;11.05;6.85;;;;;;;10.11;98.49;101912.75;5021297;28;20048;-74
2022/04/14 01:28:16;;;;;;;13.27;7.45;;;;;;;9.95;98.87;101891.16;5014892;28;20062;-74
2022/04/14 01:30:41;;;;;;;13.60;7.10;;;;;;;10.02;98.67;101916.09;5020011;28;20029;-74
2022/04/14 01:33:07;;;;;;;12.07;7.45;;;;;;;10.00;97.94;101915.38;5000502;28;20525;-74
2022/04/14 01:35:33;;;;;;;10.07;6.63;;;;;;;9.99;97.90;101916.34;5016712;28;20030;-73
2022/04/14 01:37:58;;;;;;;11.75;7.07;;;;;;;9.91;98.58;101903.75;5020503;28;20083;-73
2022/04/14 01:40:23;;;;;;;16.08;8.13;;;;;;;9.90;97.89;101909.97;5020329;28;20490;-73
2022/04/14 01:42:49;;;;;;;12.35;7.03;;;;;;;9.79;98.18;101896.78;5024216;28;20512;-73
2022/04/14 01:45:14;;;;;;;12.07;7.70;;;;;;;9.70;98.15;101890.44;4997108;28;20457;-73
2022/04/14 01:47:44;;;;;;;14.18;7.68;;;;;;;9.70;97.58;101902.78;5017666;28;20045;-73
2022/04/14 01:50:12;;;;;;;15.90;8.23;;;;;;;9.81;98.76;101913.34;5010880;28;20022;-73
2022/04/14 01:52:39;;;;;;;14.15;7.82;;;;;;;9.77;98.90;101925.06;5023577;28;20029;-73
2022/04/14 01:55:05;;;;;;;18.60;8.55;;;;;;;9.69;98.73;101912.50;5013502;28;20500;-74
2022/04/14 01:57:31;;;;;;;19.15;8.43;;;;;;;9.69;98.86;101923.03;5017426;28;20088;-74
2022/04/14 02:00:00;;;;;;;14.50;8.50;;;;;;;9.61;99.53;101909.59;5019865;28;20026;-73
2022/04/14 02:02:26;;;;;;;14.07;8.63;;;;;;;9.63;99.81;101911.16;5011123;28;20088;-73
2022/04/14 02:04:52;;;;;;;14.25;7.95;;;;;;;9.67;98.86;101919.69;4998966;28;20030;-73
2022/04/14 02:07:18;;;;;;;13.45;9.10;;;;;;;9.63;99.19;101905.88;5016257;28;20035;-73
2022/04/14 02:09:43;;;;;;;18.92;8.88;;;;;;;9.65;99.40;101918.97;5016208;28;20045;-73
2022/04/14 02:12:11;;;;;;;15.27;8.95;;;;;;;9.63;99.32;101921.72;5022246;28;20501;-74
2022/04/14 02:14:38;;;;;;;16.10;9.15;;;;;;;9.60;99.99;101919.31;5019159;28;20044;-73
2022/04/14 02:17:04;;;;;;;17.23;10.00;;;;;;;9.58;99.73;101923.00;5023624;28;20030;-74
2022/04/14 02:19:29;;;;;;;13.98;9.48;;;;;;;9.54;99.81;101918.91;5019707;28;20045;-74
2022/04/14 02:21:58;;;;;;;19.38;10.05;;;;;;;9.48;100.00;101915.81;5016126;28;20533;-73
2022/04/14 02:24:26;;;;;;;16.30;10.55;;;;;;;9.50;100.00;101923.59;5013219;28;20037;-73
2022/04/14 02:26:52;;;;;;;16.70;10.32;;;;;;;9.48;100.00;101926.34;5018016;28;20040;-73
2022/04/14 02:29:18;;;;;;;13.75;9.40;;;;;;;9.48;100.00;101928.16;5020453;28;20030;-74
2022/04/14 02:31:43;;;;;;;18.45;11.82;;;;;;;9.39;100.00;101921.78;5017312;28;20025;-74
2022/04/14 02:34:09;;;;;;;19.25;12.02;;;;;;;9.34;100.00;101918.66;5020740;28;20053;-74
2022/04/14 02:36:34;;;;;;;17.30;10.23;;;;;;;9.33;100.00;101919.59;5020092;28;20513;-74
2022/04/14 02:39:00;;;;;;;16.40;9.52;;;;;;;9.32;100.00;101925.84;5025167;28;20179;-74
2022/04/14 02:41:25;;;;;;;16.98;10.57;;;;;;;9.18;100.00;101899.69;5019398;28;20083;-74
2022/04/14 02:43:51;;;;;;;21.80;12.02;;;;;;;9.26;100.00;101928.94;5025477;28;20033;-73
2022/04/14 02:46:16;;;;;;;20.58;10.73;;;;;;;9.14;100.00;101908.75;5019239;28;20092;-73
2022/04/14 02:48:42;;;;;;;19.40;12.18;;;;;;;9.11;100.00;101920.38;5020844;28;20022;-73
2022/04/14 02:51:07;;;;;;;18.10;10.50;;;;;;;9.02;100.00;101914.00;5017176;28;20474;-74
2022/04/14 02:53:32;;;;;;;16.75;10.73;;;;;;;8.95;100.00;101912.78;5022105;28;20044;-74
2022/04/14 02:55:58;;;;;;;21.83;11.50;;;;;;;8.83;100.00;101908.41;5027164;28;20026;-74
2022/04/14 02:58:23;;;;;;;15.60;9.98;;;;;;;8.83;100.00;101913.66;5021997;28;20574;-73
2022/04/14 03:00:49;;;;;;;18.90;11.65;;;;;;;8.80;100.00;101908.63;5024212;28;20017;-74
2022/04/14 03:03:16;;;;;;;21.75;11.82;;;;;;;8.77;100.00;101914.94;5016523;28;20038;-74
2022/04/14 03:05:41;;;;;;;23.70;12.00;;;;;;;8.73;100.00;101913.50;5008305;28;20113;-74
2022/04/14 03:08:06;;;;;;;19.83;10.43;;;;;;;8.73;100.00;101920.53;5018246;28;20121;-74
2022/04/14 03:10:32;;;;;;;18.10;9.45;;;;;;;8.59;100.00;101898.72;5018265;28;20073;-73
2022/04/14 03:12:57;;;;;;;18.00;10.35;;;;;;;8.56;100.00;101900.75;5019328;28;20493;-73
2022/04/14 03:15:23;;;;;;;16.77;10.80;;;;;;;8.61;100.00;101906.50;5007516;28;20079;-73
2022/04/14 03:17:50;;;;;;;18.25;10.95;;;;;;;8.62;100.00;101921.31;5017861;28;20120;-73
2022/04/14 03:20:15;;;;;;;21.33;10.93;;;;;;;8.62;100.00;101919.56;5022382;28;20034;-73
2022/04/14 03:22:41;;;;;;;20.40;10.52;;;;;;;8.68;100.00;101930.56;5017005;28;20037;-74
2022/04/14 03:25:08;;;;;;;17.23;11.98;;;;;;;8.68;100.00;101927.94;5018209;28;20390;-73
2022/04/14 03:27:34;;;;;;;19.55;11.52;;;;;;;8.65;100.00;101940.38;5022999;28;20036;-73
2022/04/14 03:30:00;;;;;;;17.35;10.88;;;;;;;8.62;100.00;101937.97;5019666;28;20148;-73
2022/04/14 03:32:25;;;;;;;16.67;10.90;;;;;;;8.59;100.00;101943.44;5023306;28;20112;-73
2022/04/14 03:34:52;;;;;;;20.05;11.70;;;;;;;8.49;100.00;101925.78;5018270;28;20022;-73
2022/04/14 03:37:18;;;;;;;18.95;11.90;;;;;;;8.40;100.00;101912.34;5019601;28;20171;-73
2022/04/14 03:39:43;;;;;;;21.08;12.57;;;;;;;8.43;100.00;101917.41;5014980;28;20034;-73
2022/04/14 03:42:08;;;;;;;24.08;12.20;;;;;;;8.50;100.00;101920.44;5015880;28;20542;-73
2022/04/14 03:44:34;;;;;;;21.73;12.07;;;;;;;8.44;100.00;101918.22;5016970;28;20064;-73
2022/04/14 03:46:59;;;;;;;23.27;13.27;;;;;;;8.35;100.00;101903.06;5002485;28;20167;-72
2022/04/14 03:49:25;;;;;;;25.65;15.57;;;;;;;8.47;100.00;101928.56;5014176;28;20456;-72
2022/04/14 03:51:54;;;;;;;30.00;14.55;;;;;;;8.39;100.00;101930.84;5019966;28;20367;-72
2022/04/14 03:54:19;;;;;;;27.77;13.77;;;;;;;8.32;100.00;101929.56;5020895;28;20034;-72
2022/04/14 03:56:46;;;;;;;24.95;15.70;;;;;;;8.23;100.00;101926.69;5015117;28;20034;-73
2022/04/14 03:59:13;;;;;;;25.90;16.08;;;;;;;8.18;100.00;101923.50;5017401;28;20521;-73
2022/04/14 04:01:39;;;;;;;26.27;15.70;;;;;;;8.10;100.00;101925.88;5018859;28;20045;-73
2022/04/14 04:04:04;;;;;;;27.42;15.73;;;;;;;7.98;100.00;101916.19;5018626;28;20037;-71
2022/04/14 04:06:30;;;;;;;32.58;16.27;;;;;;;7.93;100.00;101921.78;5014744;28;20047;-71
2022/04/14 04:08:55;;;;;;;29.10;16.98;;;;;;;7.82;100.00;101927.75;5018572;28;20037;-72
2022/04/14 04:11:20;;;;;;;26.20;14.85;;;;;;;7.78;100.00;101939.44;5019301;28;20033;-71
2022/04/14 04:13:46;;;;;;;30.05;16.52;;;;;;;7.71;100.00;101935.56;5023291;28;20125;-71
2022/04/14 04:16:11;;;;;;;31.50;16.42;;;;;;;7.56;100.00;101916.41;5018343;28;20018;-71
2022/04/14 04:18:36;;;;;;;25.58;16.25;;;;;;;7.63;100.00;101938.69;5016798;28;20025;-71
2022/04/14 04:21:02;;;;;;;26.92;14.43;;;;;;;7.62;100.00;101951.91;5018924;28;20029;-72
2022/04/14 04:23:27;;;;;;;28.00;13.27;;;;;;;7.66;100.00;101956.03;5018045;28;20034;-71
2022/04/14 04:25:52;;;;;;;29.13;16.27;;;;;;;7.61;100.00;101952.88;5019176;28;20751;-71
2022/04/14 04:28:18;;;;;;;33.67;17.60;;;;;;;7.50;100.00;101931.75;5013903;28;20026;-71
2022/04/14 04:30:43;;;;;;;31.58;18.27;;;;;;;7.41;100.00;101926.16;5014559;28;20044;-71
2022/04/14 04:33:08;;;;;;;30.60;17.30;;;;;;;7.46;100.00;101943.41;4999461;28;20036;-72
2022/04/14 04:35:34;;;;;;;29.55;16.90;;;;;;;7.32;100.00;101924.16;4996523;28;20038;-72
2022/04/14 04:37:59;;;;;;;34.22;18.10;;;;;;;7.47;100.00;101939.81;5014850;28;20062;-71
2022/04/14 04:40:25;;;;;;;28.17;16.90;;;;;;;7.50;100.00;101937.00;5013397;28;20037;-72
2022/04/14 04:42:50;;;;;;;26.50;16.13;;;;;;;7.43;100.00;101930.47;4997557;28;20486;-72
2022/04/14 04:45:16;;;;;;;30.80;17.15;;;;;;;7.51;100.00;101949.19;5014288;28;20038;-72
2022/04/14 04:47:41;;;;;;;28.33;15.20;;;;;;;7.57;100.00;101961.91;5014209;28;20030;-71
2022/04/14 04:50:07;;;;;;;25.10;14.93;;;;;;;7.59;100.00;101962.66;5014533;28;20611;-73
2022/04/14 04:52:34;;;;;;;26.52;15.35;;;;;;;7.59;100.00;101955.59;5010753;28;20396;-71
2022/04/14 04:55:00;;;;;;;26.30;15.82;;;;;;;7.53;100.00;101945.50;5011425;28;20087;-72
2022/04/14 04:57:25;;;;;;;28.45;15.98;;;;;;;7.59;100.00;101957.38;5013193;28;20037;-72
2022/04/14 04:59:50;;;;;;;24.92;16.05;;;;;;;7.63;100.00;101962.34;5009469;28;20483;-71
2022/04/14 05:02:16;;;;;;;23.95;15.52;;;;;;;7.64;100.00;101960.53;5012456;28;20034;-71
2022/04/14 05:04:41;;;;;;;26.13;15.77;;;;;;;7.65;100.00;101972.75;5013730;28;20644;-71
2022/04/14 05:07:07;;;;;;;27.00;15.27;;;;;;;7.61;100.00;101955.50;5012812;28;20033;-71
2022/04/14 05:09:32;;;;;;;32.72;15.90;;;;;;;7.69;100.00;101965.50;5012948;28;20119;-73
2022/04/14 05:11:57;;;;;;;21.60;12.73;;;;;;;7.71;100.00;101966.22;5012971;28;20029;-71
2022/04/14 05:14:23;;;;;;;29.65;15.60;;;;;;;7.64;100.00;101942.16;5013366;28;20137;-71
2022/04/14 05:16:48;;;;;;;28.42;14.95;;;;;;;7.77;100.00;101966.66;5012671;28;20068;-71
2022/04/14 05:19:13;;;;;;;23.23;14.32;;;;;;;7.80;100.00;101971.72;5014305;28;20108;-71
2022/04/14 05:21:39;;;;;;;26.42;16.17;;;;;;;7.72;100.00;101963.50;5014320;28;20163;-71
2022/04/14 05:24:05;;;;;;;20.65;13.57;;;;;;;7.90;100.00;101987.69;4997558;28;20035;-72
2022/04/14 05:26:30;;;;;;;25.27;14.68;;;;;;;7.96;100.00;101984.63;4997018;28;20065;-71
2022/04/14 05:28:55;;;;;;;23.85;14.95;;;;;;;7.99;100.00;101986.22;5009742;28;20480;-71
2022/04/14 05:31:21;;;;;;;23.35;15.93;;;;;;;7.99;100.00;101980.94;4995113;28;20172;-73
2022/04/14 05:33:47;;;;;;;26.40;16.27;;;;;;;8.06;100.00;101987.50;4995978;28;20088;-73
2022/04/14 05:36:12;;;;;;;25.42;15.63;;;;;;;8.20;100.00;101994.41;5013123;28;20180;-73
2022/04/14 05:38:37;;;;;;;28.75;17.58;;;;;;;8.23;100.00;101992.44;5011933;28;20061;-72
2022/04/14 05:41:03;;;;;;;28.13;16.65;;;;;;;8.28;100.00;102000.00;5016256;28;20040;-72
2022/04/14 05:43:29;;;;;;;32.35;19.13;;;;;;;8.26;100.00;101993.16;5006952;28;20038;-73
2022/04/14 05:45:55;;;;;;;31.60;17.13;;;;;;;8.32;100.00;102008.50;5013590;28;20421;-73
2022/04/14 05:48:21;;;;;;;27.95;18.27;;;;;;;8.44;100.00;102008.50;4997893;28;20026;-71
2022/04/14 05:50:48;;;;;;;29.13;17.13;;;;;;;8.47;100.00;102007.47;5014864;28;20033;-71
2022/04/14 05:53:13;;;;;;;32.67;18.73;;;;;;;8.56;100.00;102019.97;5014952;28;20466;-71
2022/04/14 05:55:40;;;;;;;32.65;20.77;;;;;;;8.61;100.00;102015.22;5013837;28;20029;-72
2022/04/14 05:58:06;;;;;;;33.25;19.15;;;;;;;8.68;100.00;102006.91;5015092;28;20036;-71
2022/04/14 06:00:34;;;;;;;36.70;20.45;;;;;;;8.81;100.00;102018.22;5013290;28;20034;-71
2022/04/14 06:02:59;;;;;;;32.38;20.60;;;;;;;8.81;100.00;102018.22;5013030;28;20036;-72
2022/04/14 06:05:32;;;;;;;30.33;16.50;;;;;;;8.85;100.00;102017.06;5001717;28;20029;-72
2022/04/14 06:07:58;;;;;;;34.75;19.77;;;;;;;8.81;100.00;101999.81;5013688;28;20026;-72
2022/04/14 06:10:25;;;;;;;26.60;17.38;;;;;;;8.99;100.00;102019.56;5014132;28;20040;-72
2022/04/14 06:12:50;;;;;;;26.60;17.63;;;;;;;9.07;100.00;102016.34;5016148;28;20084;-72
2022/04/14 06:15:17;;;;;;;24.90;16.75;;;;;;;9.03;100.00;101989.38;5018049;28;20382;-72
2022/04/14 06:17:43;;;;;;;28.70;15.82;;;;;;;9.17;100.00;101996.31;5018090;28;20028;-71
2022/04/14 06:20:10;;;;;;;29.90;15.95;;;;;;;9.30;100.00;102011.19;5021065;28;20521;-71
2022/04/14 06:22:40;;;;;;;29.52;18.67;;;;;;;9.40;100.00;101996.38;5020261;28;20235;-71
2022/04/14 06:25:12;;;;;;;31.58;17.92;;;;;;;9.56;100.00;102009.25;5015417;28;20091;-71
2022/04/14 06:27:39;;;;;;;28.85;18.17;;;;;;;9.66;100.00;102005.81;5002844;28;20125;-71
2022/04/14 06:30:05;;;;;;;31.05;17.33;;;;;;;9.83;100.00;102016.88;5019466;28;20033;-71
2022/04/14 06:32:30;;;;;;;27.70;16.70;;;;;;;9.99;100.00;102019.19;5019146;28;20036;-72
2022/04/14 06:34:55;;;;;;;30.38;17.88;;;;;;;10.09;100.00;102014.91;5019131;28;20037;-73
2022/04/14 06:37:21;;;;;;;25.67;16.48;;;;;;;10.22;100.00;102017.44;5018547;28;20046;-72
2022/04/14 06:39:46;;;;;;;29.50;17.90;;;;;;;10.29;100.00;102018.66;5020441;28;20041;-72
2022/04/14 06:42:11;;;;;;;27.90;17.42;;;;;;;10.46;100.00;102023.47;5004500;28;20033;-73
2022/04/14 06:44:37;;;;;;;23.83;17.05;;;;;;;10.62;100.00;102020.44;5016456;28;20397;-72
2022/04/14 06:47:02;;;;;;;22.67;16.60;;;;;;;10.79;100.00;102024.38;5018369;28;20398;-73
2022/04/14 06:49:29;;;;;;;25.85;16.60;;;;;;;10.98;100.00;102007.91;5021407;28;20064;-72
2022/04/14 06:51:54;;;;;;;25.63;17.25;;;;;;;11.08;100.00;102024.69;5017815;28;20030;-72
2022/04/14 06:54:19;;;;;;;24.33;14.50;;;;;;;11.16;99.83;102013.50;5017322;28;20045;-72
2022/04/14 06:56:45;;;;;;;26.70;16.10;;;;;;;11.24;97.66;102021.63;5002982;28;20034;-72
2022/04/14 06:59:10;;;;;;;24.75;14.15;;;;;;;11.37;97.67;102021.47;5024331;28;20036;-73
2022/04/14 07:01:35;;;;;;;25.30;13.25;;;;;;;11.59;96.69;102017.06;4998641;28;20512;-72
2022/04/14 07:04:01;;;;;;;23.38;14.88;;;;;;;11.83;97.24;102011.50;5021856;28;20101;-73
2022/04/14 07:06:26;;;;;;;25.75;15.63;;;;;;;12.23;96.86;102022.19;5017220;28;20037;-72
2022/04/14 07:08:51;;;;;;;23.75;15.38;;;;;;;12.88;95.75;102003.31;5018889;28;20037;-73
2022/04/14 07:11:17;;;;;;;23.13;14.43;;;;;;;13.77;92.25;102017.31;5016096;28;20108;-73
2022/04/14 07:13:42;;;;;;;17.83;11.85;;;;;;;14.32;87.15;101995.34;5002698;28;20091;-73
2022/04/14 07:16:08;;;;;;;20.67;11.73;;;;;;;15.13;84.31;102015.88;5016107;28;20037;-72
2022/04/14 07:18:34;;;;;;;16.33;10.88;;;;;;;15.99;80.59;102006.44;5017890;28;20081;-72
2022/04/14 07:20:59;;;;;;;13.63;10.27;;;;;;;16.60;76.02;102016.06;5002307;28;20092;-72
2022/04/14 07:23:24;;;;;;;14.90;10.50;;;;;;;16.99;73.99;101999.53;5018402;28;20456;-72
2022/04/14 07:25:50;;;;;;;17.58;10.52;;;;;;;17.65;72.86;102019.06;5016571;28;20021;-72
2022/04/14 07:28:15;;;;;;;18.95;11.15;;;;;;;17.99;69.00;102023.41;5018820;28;20111;-72
2022/04/14 07:30:42;;;;;;;12.90;10.63;;;;;;;18.37;69.05;102006.75;5015051;28;20433;-72
2022/04/14 07:33:08;;;;;;;12.02;9.90;;;;;;;18.76;67.21;102022.75;5016872;28;20025;-72
2022/04/14 07:35:33;;;;;;;13.57;9.45;;;;;;;19.43;66.06;102018.69;5021381;28;20029;-72
2022/04/14 07:37:59;;;;;;;17.08;10.32;;;;;;;20.10;64.16;102020.59;5017921;28;20528;-72
2022/04/14 07:40:25;;;;;;;13.55;11.48;;;;;;;20.63;63.55;102015.09;5019596;28;20046;-72
2022/04/14 07:42:51;;;;;;;13.82;10.65;;;;;;;20.90;61.61;101994.75;5021794;28;20014;-73
2022/04/14 07:45:17;;;;;;;14.05;10.45;;;;;;;21.94;59.46;102021.06;5020023;28;20049;-73
2022/04/14 07:47:44;;;;;;;12.13;9.60;;;;;;;22.32;57.47;102026.06;5021486;28;20518;-73
2022/04/14 07:50:14;;;;;;;12.13;10.55;;;;;;;22.53;56.74;102023.28;5019411;28;20120;-73
2022/04/14 07:52:52;;;;;;;15.02;11.27;;;;;;;23.12;54.39;102032.56;5019979;28;20482;-73
2022/04/14 07:55:22;;;;;;;12.93;10.73;;;;;;;23.35;53.30;102021.44;5019241;28;20061;-72
2022/04/14 07:57:48;;;;;;;;;;;;;;;23.35;53.64;102029.50;5020945;28;20108;-72
2022/04/14 08:00:15;;;;;;;16.60;11.13;;;;;;;23.55;53.34;102031.38;5016012;28;19926;-72
2022/04/14 08:02:47;;;;;;;11.88;10.40;;;;;;;23.82;51.38;102021.41;5020067;28;20030;-73
2022/04/14 08:05:13;;;;;;;13.63;9.75;;;;;;;24.32;51.92;102024.41;5016266;28;20018;-73
2022/04/14 08:07:38;;;;;;;13.73;11.38;;;;;;;24.47;50.77;102026.84;5011917;28;20034;-73
2022/04/14 08:10:04;;;;;;;11.90;10.45;;;;;;;24.73;50.19;102027.78;5014330;28;20022;-73
2022/04/14 08:12:29;;;;;;;14.40;10.40;;;;;;;24.72;50.39;102026.16;5022220;28;20432;-73
2022/04/14 08:14:55;;;;;;;13.40;10.40;;;;;;;25.31;49.53;102007.94;5013401;28;20265;-73
2022/04/14 08:17:20;;;;;;;13.05;10.77;;;;;;;25.19;49.77;102021.28;5016557;28;20029;-73
2022/04/14 08:19:45;;;;;;;14.07;11.60;;;;;;;25.22;48.59;102010.06;5013295;28;20550;-73
2022/04/14 08:22:11;;;;;;;11.95;10.38;;;;;;;25.94;47.62;102020.47;5001049;28;20037;-73
2022/04/14 08:24:36;;;;;;;13.13;10.43;;;;;;;24.27;50.25;102018.00;4997718;28;20030;-73
2022/04/14 08:27:02;;;;;;;12.80;10.02;;;;;;;25.45;49.01;102031.91;5003964;28;20029;-73
2022/04/14 08:29:27;;;;;;;13.50;10.68;;;;;;;26.17;46.24;102034.13;5019422;28;20026;-73
2022/04/14 08:31:53;;;;;;;11.82;10.43;;;;;;;26.15;46.88;102022.72;5012153;28;20108;-73
2022/04/14 08:34:18;;;;;;;15.63;10.85;;;;;;;26.31;46.19;102034.00;5018242;28;20029;-73
2022/04/14 08:36:44;;;;;;;12.07;9.70;;;;;;;26.92;46.63;102033.03;5014312;28;20029;-74
2022/04/14 08:39:09;;;;;;;11.80;9.07;;;;;;;27.52;45.20;102034.81;5020558;28;20141;-73
2022/04/14 08:41:39;;;;;;;11.43;9.85;;;;;;;27.45;45.49;102034.91;5018635;28;20474;-74
2022/04/14 08:44:10;;;;;;;11.88;9.23;;;;;;;27.94;44.10;102031.16;5021709;28;20433;-73
2022/04/14 08:46:36;;;;;;;12.38;9.80;;;;;;;27.84;43.98;102029.03;5017627;28;20041;-73
2022/04/14 08:49:02;;;;;;;10.70;9.30;;;;;;;28.03;43.50;102030.56;5013565;28;20029;-73
2022/04/14 08:51:33;;;;;;;11.32;9.60;;;;;;;28.28;43.66;102034.88;5016682;28;20063;-73
2022/04/14 08:53:58;;;;;;;11.70;9.52;;;;;;;28.38;44.50;102035.09;5019120;28;20025;-73
2022/04/14 08:56:24;;;;;;;10.75;9.32;;;;;;;29.45;42.22;102019.94;5006998;28;20045;-73
2022/04/14 08:58:56;;;;;;;10.52;9.20;;;;;;;30.05;41.45;102037.44;5059303;28;21028;-75
2022/04/14 09:01:26;;;;;;;9.82;8.63;;;;;;;29.80;41.25;102013.41;5051889;28;20041;-75
2022/04/14 09:03:56;;;;;;;10.23;8.90;;;;;;;30.70;40.16;102019.38;5054633;28;20028;-74
2022/04/14 09:06:23;;;;;;;10.52;9.43;;;;;;;30.68;39.27;102027.03;5060324;28;20032;-74
2022/04/14 09:08:48;;;;;;;10.82;8.00;;;;;;;31.27;39.59;102025.38;5048502;28;20087;-75
2022/04/14 09:11:14;;;;;;;10.70;9.07;;;;;;;30.91;40.35;102030.53;5032971;28;20025;-74
2022/04/14 09:13:43;;;;;;;8.75;7.88;;;;;;;31.49;39.59;102030.78;5050591;28;20025;-75
2022/04/14 09:16:09;;;;;;;9.10;7.77;;;;;;;31.41;38.71;102026.59;5051226;28;20090;-74
2022/04/14 09:18:35;;;;;;;10.55;8.30;;;;;;;30.85;39.55;102028.81;5049519;28;20035;-75
2022/04/14 09:21:05;;;;;;;9.23;7.95;;;;;;;31.04;39.21;102023.84;5033065;28;20037;-74
2022/04/14 09:23:31;;;;;;;9.43;7.57;;;;;;;30.88;39.24;102014.69;5060058;28;20040;-74
2022/04/14 09:26:02;;;;;;;9.27;7.55;;;;;;;31.90;36.54;102020.06;5057120;28;20024;-74
2022/04/14 09:28:28;;;;;;;8.90;8.00;;;;;;;31.19;39.02;102028.59;5053203;28;20029;-74
2022/04/14 09:31:11;;;;;;;10.75;7.95;;;;;;;32.08;37.11;102022.38;5058017;28;20037;-74
2022/04/14 09:33:48;;;;;;;10.82;7.30;;;;;;;31.81;38.14;102030.66;5053825;28;20059;-74
2022/04/14 09:36:19;;;;;;;7.28;6.25;;;;;;;30.43;40.04;102029.47;5051468;28;20021;-74
2022/04/14 09:39:01;;;;;;;9.80;6.90;;;;;;;31.41;38.75;102017.59;5047604;28;20087;-74
2022/04/14 09:41:31;;;;;;;9.30;5.80;;;;;;;32.27;37.10;102030.94;5046373;28;20033;-75
2022/04/14 09:43:58;;;;;;;;;;;;;;;31.44;37.60;102039.72;5060351;28;20331;-74
2022/04/14 09:46:25;;;;;;;7.82;6.25;;;;;;;30.54;38.28;102023.88;5052121;28;19954;-74
2022/04/14 09:49:03;;;;;;;7.88;6.18;;;;;;;30.14;39.73;102032.38;5057172;28;20564;-74
2022/04/14 09:51:29;;;;;;;7.80;6.05;;;;;;;29.47;40.66;102038.72;5049457;28;20370;-74
2022/04/14 09:54:04;;;;;;;7.07;5.80;;;;;;;28.60;42.27;102034.47;5046763;28;20025;-74
2022/04/14 09:56:41;;;;;;;7.55;5.13;;;;;;;28.41;41.45;102040.03;5048197;28;20476;-74
2022/04/14 09:59:08;;;;;;;9.82;6.03;;;;;;;29.21;40.24;102032.06;5039296;28;20037;-74
2022/04/14 10:01:34;;;;;;;6.38;5.20;;;;;;;30.16;40.15;102041.09;5027145;28;20403;-74
2022/04/14 10:04:00;;;;;;;7.97;6.13;;;;;;;30.81;39.15;102041.31;5031319;28;20022;-74
2022/04/14 10:06:26;;;;;;;9.25;5.45;;;;;;;30.90;38.67;102056.13;5050578;28;20404;-74
2022/04/14 10:08:52;;;;;;;8.18;5.95;;;;;;;30.82;39.06;102059.31;5047384;28;20030;-74
2022/04/14 10:11:32;;;;;;;8.65;6.47;;;;;;;29.46;40.65;102053.38;5038880;28;20037;-74
2022/04/14 10:14:18;;;;;;;8.73;6.45;;;;;;;28.83;42.45;102050.69;5035242;28;20056;-72
2022/04/14 10:16:46;;;;;;;8.60;5.90;;;;;;;27.65;42.18;102047.31;5041671;28;20479;-74
2022/04/14 10:19:13;;;;;;;6.78;5.40;;;;;;;28.18;42.54;102043.66;5039620;28;20021;-73
2022/04/14 10:21:39;;;;;;;6.47;5.05;;;;;;;28.71;41.78;102061.56;5037925;28;20096;-73
2022/04/14 10:24:06;;;;;;;6.07;4.88;;;;;;;29.25;40.44;102041.38;5037334;28;20689;-73
2022/04/14 10:26:34;;;;;;;7.63;4.43;;;;;;;28.75;41.40;102050.25;5039645;28;20048;-73
2022/04/14 10:29:00;;;;;;;7.70;5.20;;;;;;;29.44;40.41;102044.66;5043118;28;20033;-73
2022/04/14 10:31:27;;;;;;;7.00;5.07;;;;;;;30.57;38.97;102040.78;5031155;28;20295;-73
2022/04/14 10:33:53;;;;;;;10.20;5.95;;;;;;;31.34;39.35;102054.09;5024040;28;20533;-73
2022/04/14 10:36:19;;;;;;;7.90;5.60;;;;;;;31.60;38.27;102059.78;5032014;28;20485;-73
2022/04/14 10:38:46;;;;;;;8.35;6.78;;;;;;;30.87;39.65;102062.94;5015176;28;20018;-73
2022/04/14 10:41:21;;;;;;;9.60;5.72;;;;;;;30.85;38.97;102050.63;5036623;28;20045;-73
2022/04/14 10:43:47;;;;;;;11.10;5.47;;;;;;;31.03;39.49;102061.19;5027963;28;20459;-74
2022/04/14 10:46:17;;;;;;;5.38;4.88;;;;;;;31.16;39.18;102068.09;5034386;28;20688;-74
2022/04/14 10:48:44;;;;;;;11.90;5.90;;;;;;;31.46;39.04;102075.75;5036390;28;20075;-74
2022/04/14 10:51:23;;;;;;;6.70;5.53;;;;;;;31.34;39.10;102077.81;5035648;28;20037;-74
2022/04/14 10:53:57;;;;;;;6.65;5.50;;;;;;;31.49;39.03;102077.16;5019115;28;20055;-74
2022/04/14 10:56:42;;;;;;;8.32;6.25;;;;;;;32.30;37.82;102076.00;5034026;28;20028;-73
2022/04/14 10:59:15;;;;;;;8.75;6.03;;;;;;;32.39;37.12;102075.22;5014944;28;20397;-74
2022/04/14 11:01:47;;;;;;;6.82;5.90;;;;;;;32.45;37.58;102080.72;5021708;28;20036;-73
2022/04/14 11:04:35;;;;;;;7.60;5.90;;;;;;;32.56;37.35;102077.78;5031722;28;20025;-74
2022/04/14 11:07:12;;;;;;;7.63;5.85;;;;;;;32.62;37.17;102081.34;5029965;28;20481;-74
2022/04/14 11:09:48;;;;;;;7.05;5.45;;;;;;;33.28;36.40;102082.56;5044364;28;20029;-74
2022/04/14 11:12:22;;;;;;;6.47;4.65;;;;;;;33.69;36.02;102061.47;5035767;28;20024;-74